createdAt,value
2018-12-30T00:00:03.147Z,8.3
2018-12-30T00:05:02.527Z,8.3
2018-12-30T00:10:03.006Z,8.3
2018-12-30T00:15:03.227Z,8.3
2018-12-30T00:20:03.344Z,8.3
2018-12-30T00:25:02.453Z,8.3
2018-12-30T00:30:02.602Z,8.3
2018-12-30T00:35:02.849Z,8.1
2018-12-30T00:40:03.065Z,8.1
2018-12-30T00:45:03.214Z,8.3
2018-12-30T00:50:03.345Z,8.1
2018-12-30T00:55:02.554Z,8.1
2018-12-30T01:00:02.594Z,8.1
2018-12-30T01:05:02.524Z,8.1
2018-12-30T01:10:02.897Z,8.1
2018-12-30T01:15:03.161Z,8.1
2018-12-30T01:20:03.350Z,8.1
2018-12-30T01:25:03.268Z,7.9
2018-12-30T01:30:02.502Z,7.9
2018-12-30T01:35:02.627Z,7.9
2018-12-30T01:40:02.796Z,7.9
2018-12-30T01:45:02.917Z,7.9
2018-12-30T01:50:02.995Z,8.0
2018-12-30T01:55:03.165Z,7.9
2018-12-30T02:00:03.312Z,7.9
2018-12-30T02:05:02.406Z,7.9
2018-12-30T02:10:02.547Z,7.9
2018-12-30T02:15:02.586Z,7.9
2018-12-30T02:20:02.616Z,7.9
2018-12-30T02:25:02.746Z,7.6
2018-12-30T02:30:02.793Z,7.6
2018-12-30T02:35:03.022Z,7.6
2018-12-30T02:40:03.201Z,7.6
2018-12-30T02:45:03.302Z,7.6
2018-12-30T02:50:02.339Z,7.6
2018-12-30T02:55:02.415Z,7.6
2018-12-30T03:00:02.692Z,7.5
2018-12-30T03:05:02.822Z,7.5
2018-12-30T03:10:02.942Z,7.5
2018-12-30T03:15:03.001Z,7.5
2018-12-30T03:20:03.021Z,7.5
2018-12-30T03:25:03.172Z,7.5
2018-12-30T03:30:03.204Z,7.6
2018-12-30T03:35:03.226Z,7.6
2018-12-30T03:40:03.396Z,7.5
2018-12-30T03:45:02.619Z,7.5
2018-12-30T03:50:02.618Z,7.4
2018-12-30T03:55:02.868Z,7.4
2018-12-30T04:00:03.097Z,7.4
2018-12-30T04:05:03.119Z,7.4
2018-12-30T04:15:02.991Z,7.4
2018-12-30T04:20:03.013Z,7.4
2018-12-30T04:25:03.040Z,7.4
2018-12-30T04:30:03.179Z,7.1
2018-12-30T04:35:03.218Z,7.1
2018-12-30T04:40:03.354Z,7.1
2018-12-30T04:45:02.377Z,7.1
2018-12-30T04:50:02.406Z,7.1
2018-12-30T04:55:02.531Z,7.1
2018-12-30T05:00:02.580Z,7.1
2018-12-30T05:05:02.601Z,7.0
2018-12-30T05:10:02.731Z,7.0
2018-12-30T05:15:02.796Z,6.9
2018-12-30T05:20:02.814Z,6.9
2018-12-30T05:25:02.861Z,6.6
2018-12-30T05:30:02.683Z,6.6
2018-12-30T05:35:02.713Z,6.6
2018-12-30T05:40:02.831Z,6.6
2018-12-30T05:45:02.889Z,6.5
2018-12-30T05:50:02.514Z,6.5
2018-12-30T05:55:02.526Z,6.5
2018-12-30T06:00:02.632Z,6.5
2018-12-30T06:05:02.607Z,6.5
2018-12-30T06:10:02.728Z,6.5
2018-12-30T06:15:02.847Z,6.5
2018-12-30T06:20:02.806Z,6.5
2018-12-30T06:25:03.383Z,6.5
2018-12-30T06:30:02.465Z,6.5
2018-12-30T06:35:02.497Z,6.5
2018-12-30T06:40:02.621Z,6.5
2018-12-30T06:45:02.565Z,6.5
2018-12-30T06:50:02.594Z,6.5
2018-12-30T06:55:02.675Z,6.5
2018-12-30T07:00:02.770Z,6.6
2018-12-30T07:05:02.922Z,6.6
2018-12-30T07:10:03.025Z,6.9
2018-12-30T07:15:03.113Z,6.9
2018-12-30T07:20:03.141Z,6.9
2018-12-30T07:25:03.143Z,7.0
2018-12-30T07:30:03.161Z,6.9
2018-12-30T07:35:03.431Z,6.9
2018-12-30T07:40:02.505Z,6.9
2018-12-30T07:45:02.447Z,6.4
2018-12-30T07:50:02.486Z,6.4
2018-12-30T07:55:02.513Z,6.0
2018-12-30T08:00:02.544Z,6.0
2018-12-30T08:05:02.589Z,6.0
2018-12-30T08:10:02.735Z,5.9
2018-12-30T08:15:02.745Z,6.0
2018-12-30T08:20:02.710Z,6.1
2018-12-30T08:25:02.742Z,6.0
2018-12-30T08:30:02.780Z,6.0
2018-12-30T08:35:02.821Z,6.1
2018-12-30T08:40:02.914Z,6.5
2018-12-30T08:49:39.991Z,6.9
2018-12-30T08:50:02.474Z,6.9
2018-12-30T08:55:02.817Z,7.0
2018-12-30T08:58:07.418Z,6.9
2018-12-30T08:58:46.162Z,6.9
2018-12-30T09:00:03.199Z,6.9
2018-12-30T09:01:49.910Z,6.9
2018-12-30T09:05:02.696Z,6.9
2018-12-30T09:06:01.188Z,6.9
2018-12-30T09:10:03.118Z,7.0
2018-12-30T09:14:11.124Z,7.1
2018-12-30T09:15:39.448Z,7.1
2018-12-30T09:20:02.714Z,7.1
2018-12-30T09:25:03.131Z,7.1
2018-12-30T09:36:27.472Z,7.5
2018-12-30T09:40:03.108Z,7.5
2018-12-30T09:45:02.434Z,7.5
2018-12-30T09:50:02.784Z,7.6
2018-12-30T09:55:03.125Z,7.5
2018-12-30T10:00:02.549Z,7.5
2018-12-30T10:05:02.987Z,7.5
2018-12-30T10:10:02.415Z,7.5
2018-12-30T10:15:09.682Z,7.6
2018-12-30T10:20:02.584Z,7.6
2018-12-30T10:25:02.952Z,7.9
2018-12-30T10:30:03.391Z,7.9
2018-12-30T10:35:02.814Z,7.9
2018-12-30T10:36:35.981Z,7.9
2018-12-30T10:40:03.328Z,7.9
2018-12-30T10:45:02.758Z,8.0
2018-12-30T10:46:31.979Z,8.0
2018-12-30T10:50:03.184Z,8.0
2018-12-30T10:55:02.611Z,8.1
2018-12-30T11:00:02.950Z,8.1
2018-12-30T11:10:03.018Z,8.1
2018-12-30T11:15:02.465Z,8.1
2018-12-30T11:20:02.807Z,8.1
2018-12-30T11:25:03.293Z,8.0
2018-12-30T11:30:02.631Z,8.0
2018-12-30T11:35:02.985Z,7.9
2018-12-30T11:40:02.389Z,7.9
2018-12-30T11:45:02.741Z,8.0
2018-12-30T11:50:03.228Z,8.0
2018-12-30T11:55:02.588Z,8.0
2018-12-30T12:00:02.971Z,8.1
2018-12-30T12:05:02.399Z,8.3
2018-12-30T12:10:02.800Z,8.1
2018-12-30T12:15:03.140Z,8.3
2018-12-30T12:20:02.568Z,8.3
2018-12-30T12:25:02.900Z,8.3
2018-12-30T12:30:03.242Z,8.5
2018-12-30T12:35:02.670Z,8.5
2018-12-30T12:40:03.106Z,8.6
2018-12-30T12:45:02.517Z,8.8
2018-12-30T12:50:02.870Z,8.6
2018-12-30T12:55:03.349Z,8.5
2018-12-30T13:00:02.719Z,8.6
2018-12-30T13:05:03.181Z,8.6
2018-12-30T13:10:02.630Z,8.5
2018-12-30T13:15:03.031Z,8.6
2018-12-30T13:20:02.449Z,8.6
2018-12-30T13:25:02.800Z,8.6
2018-12-30T13:30:03.298Z,8.8
2018-12-30T13:35:02.679Z,8.6
2018-12-30T13:40:03.112Z,8.8
2018-12-30T13:45:02.511Z,8.6
2018-12-30T13:50:02.859Z,8.5
2018-12-30T13:55:03.204Z,8.6
2018-12-30T14:00:02.613Z,8.5
2018-12-30T14:05:02.974Z,8.5
2018-12-30T14:10:02.381Z,8.3
2018-12-30T14:15:02.828Z,8.1
2018-12-30T14:20:03.262Z,8.1
2018-12-30T14:25:02.703Z,8.1
2018-12-30T14:30:03.172Z,8.1
2018-12-30T14:35:02.524Z,8.1
2018-12-30T14:40:02.988Z,8.1
2018-12-30T14:45:02.508Z,8.0
2018-12-30T14:50:02.851Z,8.0
2018-12-30T14:55:04.126Z,7.6
2018-12-30T15:00:03.525Z,7.5
2018-12-30T15:05:03.001Z,7.4
2018-12-30T15:10:02.513Z,7.4
2018-12-30T15:15:02.944Z,7.1
2018-12-30T15:20:03.442Z,7.1
2018-12-30T15:25:02.788Z,7.0
2018-12-30T15:30:03.121Z,7.0
2018-12-30T15:35:02.449Z,6.9
2018-12-30T15:40:02.896Z,6.9
2018-12-30T15:45:03.326Z,6.9
2018-12-30T15:50:02.739Z,6.6
2018-12-30T15:55:03.088Z,6.6
2018-12-30T16:00:02.492Z,6.6
2018-12-30T16:05:02.838Z,6.6
2018-12-30T16:10:03.326Z,6.6
2018-12-30T16:15:02.695Z,6.6
2018-12-30T16:20:03.046Z,6.6
2018-12-30T16:25:02.469Z,6.6
2018-12-30T16:30:02.910Z,6.6
2018-12-30T16:35:03.357Z,6.6
2018-12-30T16:40:02.882Z,6.9
2018-12-30T16:45:03.363Z,6.9
2018-12-30T16:50:02.764Z,6.6
2018-12-30T16:55:03.184Z,6.9
2018-12-30T17:00:02.629Z,6.9
2018-12-30T17:05:03.044Z,6.9
2018-12-30T17:10:02.462Z,6.6
2018-12-30T17:15:02.805Z,6.9
2018-12-30T17:20:03.244Z,6.9
2018-12-30T17:25:02.666Z,6.9
2018-12-30T17:30:03.012Z,6.9
2018-12-30T17:35:02.357Z,7.0
2018-12-30T17:40:02.771Z,6.9
2018-12-30T17:45:03.274Z,7.0
2018-12-30T17:50:02.627Z,6.9
2018-12-30T17:55:02.981Z,6.9
2018-12-30T18:00:02.432Z,6.9
2018-12-30T18:05:02.843Z,7.0
2018-12-30T18:15:02.705Z,6.9
2018-12-30T18:20:03.178Z,7.0
2018-12-30T18:25:02.652Z,7.0
2018-12-30T18:30:03.033Z,7.0
2018-12-30T18:35:02.486Z,7.0
2018-12-30T18:40:02.903Z,7.0
2018-12-30T18:45:03.320Z,7.0
2018-12-30T18:50:02.721Z,7.0
2018-12-30T18:55:03.152Z,7.1
2018-12-30T19:00:02.595Z,7.0
2018-12-30T19:05:05.248Z,7.1
2018-12-30T19:10:02.753Z,7.1
2018-12-30T19:15:03.212Z,7.1
2018-12-30T19:20:02.609Z,7.1
2018-12-30T19:25:02.956Z,7.4
2018-12-30T19:30:03.478Z,7.4
2018-12-30T19:35:02.869Z,7.4
2018-12-30T19:40:03.374Z,7.4
2018-12-30T19:45:02.788Z,7.4
2018-12-30T19:50:03.123Z,7.5
2018-12-30T19:55:02.566Z,7.5
2018-12-30T20:00:03.029Z,7.5
2018-12-30T20:05:02.447Z,7.6
2018-12-30T20:10:02.971Z,7.6
2018-12-30T20:15:02.413Z,7.9
2018-12-30T20:20:02.825Z,7.9
2018-12-30T20:25:03.274Z,7.9
2018-12-30T20:30:02.815Z,7.9
2018-12-30T20:35:03.258Z,8.0
2018-12-30T20:40:02.744Z,8.0
2018-12-30T20:45:03.090Z,8.0
2018-12-30T20:50:02.501Z,8.1
2018-12-30T20:55:02.849Z,8.0
2018-12-30T21:00:03.502Z,8.0
2018-12-30T21:05:02.958Z,8.0
2018-12-30T21:10:02.447Z,8.0
2018-12-30T21:15:02.886Z,8.1
2018-12-30T21:20:03.370Z,8.1
2018-12-30T21:25:02.737Z,8.1
2018-12-30T21:30:03.217Z,8.1
2018-12-30T21:35:02.646Z,8.3
2018-12-30T21:40:03.093Z,8.3
2018-12-30T21:45:02.512Z,8.1
2018-12-30T21:50:02.909Z,8.1
2018-12-30T21:55:03.355Z,8.3
2018-12-30T22:00:02.773Z,8.1
2018-12-30T22:05:03.264Z,8.3
2018-12-30T22:10:03.421Z,8.3
2018-12-30T22:15:02.881Z,8.3
2018-12-30T22:20:03.364Z,8.3
2018-12-30T22:25:02.833Z,8.3
2018-12-30T22:30:03.179Z,8.5
2018-12-30T22:35:02.604Z,8.5
2018-12-30T22:40:03.003Z,8.5
2018-12-30T22:45:02.709Z,8.3
2018-12-30T22:50:03.119Z,8.5
2018-12-30T22:55:02.549Z,8.5
2018-12-30T23:00:02.975Z,8.3
2018-12-30T23:05:02.403Z,8.3
2018-12-30T23:10:02.869Z,8.3
2018-12-30T23:15:03.325Z,8.5
2018-12-30T23:20:02.730Z,8.5
2018-12-30T23:25:03.150Z,8.5
2018-12-30T23:30:02.592Z,8.5
2018-12-30T23:35:02.965Z,8.6
2018-12-30T23:40:02.424Z,8.5
2018-12-30T23:45:02.877Z,8.5
2018-12-30T23:50:03.317Z,8.5
2018-12-30T23:55:02.723Z,8.5
